createdAt,value
2023-03-21T00:01:30.623Z,8.07
2023-03-21T00:03:58.176Z,8.90
2023-03-21T00:06:25.744Z,8.70
2023-03-21T00:08:53.485Z,8.03
2023-03-21T00:11:21.613Z,8.67
2023-03-21T00:13:50.348Z,9.13
2023-03-21T00:16:29.234Z,9.47
2023-03-21T00:18:58.687Z,9.40
2023-03-21T00:22:03.590Z,9.13
2023-03-21T00:24:19.709Z,9.03
2023-03-21T00:26:47.117Z,10.37
2023-03-21T00:29:16.012Z,9.97
2023-03-21T00:31:43.426Z,9.93
2023-03-21T00:34:14.079Z,10.53
2023-03-21T00:36:41.668Z,10.43
2023-03-21T00:39:09.521Z,10.57
2023-03-21T00:41:42.854Z,11.20
2023-03-21T00:44:13.583Z,11.07
2023-03-21T00:46:51.676Z,11.30
2023-03-21T00:49:24.736Z,10.90
2023-03-21T00:51:53.241Z,10.97
2023-03-21T00:54:20.758Z,10.33
2023-03-21T00:56:48.159Z,11.80
2023-03-21T00:59:16.598Z,12.20
2023-03-21T01:01:46.782Z,12.70
2023-03-21T01:04:16.525Z,12.50
2023-03-21T01:06:45.059Z,12.50
2023-03-21T01:09:15.112Z,13.70
2023-03-21T01:11:42.891Z,13.10
2023-03-21T01:14:21.875Z,14.00
2023-03-21T01:16:51.230Z,15.37
2023-03-21T01:19:50.648Z,14.97
2023-03-21T01:22:07.479Z,16.47
2023-03-21T01:24:37.715Z,16.87
2023-03-21T01:27:05.948Z,16.27
2023-03-21T01:29:33.352Z,16.73
2023-03-21T01:32:02.074Z,17.10
2023-03-21T01:34:29.931Z,16.63
2023-03-21T01:36:57.404Z,17.27
2023-03-21T01:39:24.837Z,15.73
2023-03-21T01:41:52.254Z,17.67
2023-03-21T01:44:20.297Z,19.33
2023-03-21T01:49:41.589Z,20.00
2023-03-21T01:52:20.950Z,19.20
2023-03-21T01:54:56.943Z,19.70
2023-03-21T01:57:40.389Z,22.70
2023-03-21T02:00:13.033Z,22.73
2023-03-21T02:02:52.137Z,22.57
2023-03-21T02:05:28.285Z,23.27
2023-03-21T02:07:55.815Z,24.53
2023-03-21T02:10:23.331Z,24.43
2023-03-21T02:12:51.176Z,24.37
2023-03-21T02:15:18.749Z,24.80
2023-03-21T02:17:53.328Z,25.13
2023-03-21T02:20:36.054Z,24.70
2023-03-21T02:23:24.522Z,25.57
2023-03-21T02:26:19.114Z,25.47
2023-03-21T02:28:48.938Z,25.57
2023-03-21T02:31:28.333Z,27.10
2023-03-21T02:34:36.206Z,26.67
2023-03-21T02:37:09.762Z,26.57
2023-03-21T02:39:48.807Z,27.47
2023-03-21T02:42:21.813Z,26.30
2023-03-21T02:44:57.036Z,27.30
2023-03-21T02:47:28.983Z,27.73
2023-03-21T02:49:59.816Z,28.53
2023-03-21T02:52:39.144Z,28.63
2023-03-21T02:55:13.726Z,27.80
2023-03-21T02:57:44.004Z,26.60
2023-03-21T03:00:17.852Z,27.87
2023-03-21T03:02:47.520Z,27.67
2023-03-21T03:05:21.605Z,27.50
2023-03-21T03:08:00.989Z,28.23
2023-03-21T03:10:40.305Z,26.93
2023-03-21T03:13:16.971Z,27.80
2023-03-21T03:15:57.769Z,27.50
2023-03-21T03:18:33.543Z,25.33
2023-03-21T03:21:09.498Z,28.27
2023-03-21T03:23:45.945Z,29.40
2023-03-21T03:26:17.758Z,28.43
2023-03-21T03:28:50.190Z,27.73
2023-03-21T03:31:25.919Z,27.63
2023-03-21T03:33:57.137Z,28.97
2023-03-21T03:36:32.602Z,28.00
2023-03-21T03:39:05.351Z,27.93
2023-03-21T03:42:03.050Z,29.03
2023-03-21T03:44:24.210Z,30.80
2023-03-21T03:46:57.211Z,29.20
2023-03-21T03:49:27.953Z,28.97
2023-03-21T03:52:00.317Z,28.87
2023-03-21T03:54:33.197Z,28.83
2023-03-21T03:57:01.263Z,29.43
2023-03-21T03:59:28.710Z,30.10
2023-03-21T04:01:56.172Z,28.97
2023-03-21T04:04:28.621Z,29.60
2023-03-21T04:06:58.011Z,28.77
2023-03-21T04:09:40.942Z,27.60
2023-03-21T04:12:12.798Z,28.17
2023-03-21T04:14:45.581Z,27.43
2023-03-21T04:17:14.662Z,28.57
2023-03-21T04:19:42.468Z,28.53
2023-03-21T04:22:09.941Z,27.10
2023-03-21T04:24:37.501Z,28.33
2023-03-21T04:27:05.789Z,28.30
2023-03-21T04:29:34.564Z,27.60
2023-03-21T04:32:02.346Z,27.67
2023-03-21T04:34:29.930Z,28.93
2023-03-21T04:36:57.874Z,27.97
2023-03-21T04:39:25.474Z,27.03
2023-03-21T04:41:52.971Z,27.83
2023-03-21T04:44:20.891Z,28.67
2023-03-21T04:46:50.300Z,28.80
2023-03-21T04:49:18.466Z,27.93
2023-03-21T04:51:46.035Z,26.87
2023-03-21T04:56:41.102Z,28.80
2023-03-21T04:59:12.687Z,28.40
2023-03-21T05:01:41.068Z,27.27
2023-03-21T05:04:10.799Z,27.07
2023-03-21T05:06:38.276Z,27.87
2023-03-21T05:09:07.085Z,27.80
2023-03-21T05:11:37.623Z,27.60
2023-03-21T05:14:05.712Z,29.93
2023-03-21T05:16:34.750Z,29.40
2023-03-21T05:19:04.966Z,27.97
2023-03-21T05:21:41.861Z,30.70
2023-03-21T05:24:12.143Z,29.97
2023-03-21T05:26:40.111Z,32.03
2023-03-21T05:29:08.241Z,29.30
2023-03-21T05:31:36.240Z,30.33
2023-03-21T05:34:04.120Z,30.43
2023-03-21T05:36:33.985Z,30.40
2023-03-21T05:39:02.847Z,31.03
2023-03-21T05:41:30.510Z,31.17
2023-03-21T05:43:57.951Z,30.77
2023-03-21T05:46:25.381Z,31.87
2023-03-21T05:48:53.002Z,31.40
2023-03-21T05:51:20.542Z,33.00
2023-03-21T05:53:48.487Z,29.67
2023-03-21T05:56:17.330Z,30.70
2023-03-21T05:58:44.804Z,31.17
2023-03-21T06:01:12.529Z,30.93
2023-03-21T06:03:39.965Z,30.90
2023-03-21T06:06:08.143Z,30.57
2023-03-21T06:08:35.737Z,33.13
2023-03-21T06:11:03.280Z,33.13
2023-03-21T06:13:32.882Z,32.27
2023-03-21T06:16:00.384Z,30.33
2023-03-21T06:18:28.072Z,29.40
2023-03-21T06:20:56.629Z,31.50
2023-03-21T06:23:24.061Z,31.10
2023-03-21T06:25:51.576Z,32.60
2023-03-21T06:28:19.069Z,25.77
2023-03-21T06:30:47.777Z,29.93
2023-03-21T06:33:15.358Z,31.30
2023-03-21T06:35:42.774Z,29.47
2023-03-21T06:38:10.334Z,28.43
2023-03-21T06:40:38.931Z,26.03
2023-03-21T06:43:06.706Z,29.40
2023-03-21T06:45:34.114Z,29.30
2023-03-21T06:48:02.922Z,28.80
2023-03-21T06:50:30.417Z,29.47
2023-03-21T06:52:59.334Z,26.17
2023-03-21T06:55:28.787Z,32.23
2023-03-21T06:57:57.334Z,32.60
2023-03-21T07:00:25.304Z,31.33
2023-03-21T07:02:53.815Z,32.57
2023-03-21T07:05:22.664Z,29.60
2023-03-21T07:07:50.109Z,31.67
2023-03-21T07:10:17.785Z,33.60
2023-03-21T07:12:45.316Z,32.97
2023-03-21T07:15:12.937Z,32.67
2023-03-21T07:17:40.361Z,34.43
2023-03-21T07:20:08.674Z,33.83
2023-03-21T07:22:37.451Z,34.00
2023-03-21T07:25:06.290Z,34.23
2023-03-21T07:27:33.769Z,32.57
2023-03-21T07:30:01.229Z,32.40
2023-03-21T07:32:29.986Z,34.57
2023-03-21T07:34:57.551Z,34.90
2023-03-21T07:37:24.960Z,35.27
2023-03-21T07:39:53.781Z,35.63
2023-03-21T07:42:21.312Z,35.03
2023-03-21T07:44:48.748Z,36.00
2023-03-21T07:47:16.159Z,34.97
2023-03-21T07:49:43.559Z,34.17
2023-03-21T07:52:11.026Z,34.80
2023-03-21T07:54:38.463Z,35.33
2023-03-21T07:57:07.335Z,32.57
2023-03-21T07:59:34.758Z,33.33
2023-03-21T08:02:02.214Z,34.77
2023-03-21T08:04:30.138Z,33.93
2023-03-21T08:06:58.064Z,35.30
2023-03-21T08:09:25.462Z,32.30
2023-03-21T08:11:52.857Z,32.13
2023-03-21T08:14:21.592Z,32.00
2023-03-21T08:16:49.019Z,35.13
2023-03-21T08:19:18.671Z,33.90
2023-03-21T08:21:46.082Z,32.33
2023-03-21T08:24:13.461Z,33.03
2023-03-21T08:26:41.060Z,32.60
2023-03-21T08:29:08.896Z,32.47
2023-03-21T08:31:37.655Z,34.07
2023-03-21T08:34:05.176Z,33.27
2023-03-21T08:36:32.730Z,31.67
2023-03-21T08:39:05.633Z,31.23
2023-03-21T08:41:33.566Z,35.33
2023-03-21T08:44:00.972Z,33.97
2023-03-21T08:46:28.683Z,36.50
2023-03-21T08:48:57.551Z,32.30
2023-03-21T08:51:24.954Z,33.10
2023-03-21T08:53:52.558Z,34.43
2023-03-21T08:56:19.999Z,30.70
2023-03-21T08:58:47.408Z,29.90
2023-03-21T09:01:15.884Z,29.17
2023-03-21T09:03:43.832Z,29.87
2023-03-21T09:06:14.282Z,29.33
2023-03-21T09:08:43.331Z,28.03
2023-03-21T09:11:11.641Z,28.80
2023-03-21T09:13:39.138Z,26.80
2023-03-21T09:16:07.367Z,27.20
2023-03-21T09:18:47.094Z,27.53
2023-03-21T09:21:18.163Z,30.03
2023-03-21T09:23:46.142Z,30.13
2023-03-21T09:26:13.968Z,30.70
2023-03-21T09:28:41.662Z,50.03
2023-03-21T09:31:11.295Z,30.83
2023-03-21T09:33:40.210Z,29.07
2023-03-21T09:36:11.751Z,27.83
2023-03-21T09:38:40.978Z,29.17
2023-03-21T09:41:18.573Z,28.47
2023-03-21T09:43:59.949Z,28.83
2023-03-21T09:46:35.761Z,30.27
2023-03-21T09:49:07.937Z,27.80
2023-03-21T09:51:38.215Z,26.57
2023-03-21T09:54:14.270Z,27.23
2023-03-21T09:56:43.930Z,26.73
2023-03-21T09:59:20.884Z,25.10
2023-03-21T10:01:49.917Z,26.20
2023-03-21T10:04:18.853Z,28.93
2023-03-21T10:06:53.714Z,26.67
2023-03-21T10:09:24.445Z,26.47
2023-03-21T10:11:57.258Z,30.43
2023-03-21T10:14:31.169Z,28.17
2023-03-21T10:17:01.760Z,26.57
2023-03-21T10:19:29.792Z,27.43
2023-03-21T10:22:03.083Z,28.20
2023-03-21T10:24:34.684Z,27.93
2023-03-21T10:27:04.769Z,25.33
2023-03-21T10:29:37.166Z,27.67
2023-03-21T10:32:04.975Z,25.63
2023-03-21T10:34:37.456Z,26.27
2023-03-21T10:37:06.830Z,26.53
2023-03-21T10:39:40.154Z,26.77
2023-03-21T10:42:15.774Z,24.17
2023-03-21T10:44:48.829Z,27.33
2023-03-21T10:47:21.580Z,24.60
2023-03-21T10:52:39.347Z,26.67
2023-03-21T10:55:19.512Z,25.43
2023-03-21T10:57:47.964Z,24.60
2023-03-21T11:00:21.726Z,24.13
2023-03-21T11:02:51.385Z,23.53
2023-03-21T11:05:23.073Z,23.43
2023-03-21T11:07:58.761Z,26.33
2023-03-21T11:10:33.659Z,24.47
2023-03-21T11:13:06.872Z,23.33
2023-03-21T11:15:42.057Z,22.90
2023-03-21T11:18:18.626Z,22.37
2023-03-21T11:20:51.734Z,23.50
2023-03-21T11:23:20.892Z,22.30
2023-03-21T11:25:51.636Z,23.20
2023-03-21T11:28:22.082Z,20.07
2023-03-21T11:30:55.525Z,20.10
2023-03-21T11:33:27.039Z,20.03
2023-03-21T11:36:02.901Z,20.87
2023-03-21T11:38:34.006Z,19.33
2023-03-21T11:41:04.257Z,19.27
2023-03-21T11:43:35.957Z,19.10
2023-03-21T11:46:08.918Z,20.93
2023-03-21T11:48:40.804Z,18.47
2023-03-21T11:51:18.179Z,19.83
2023-03-21T11:53:49.987Z,18.97
2023-03-21T11:56:26.497Z,17.20
2023-03-21T11:59:17.300Z,17.63
2023-03-21T12:01:57.179Z,17.50
2023-03-21T12:04:40.525Z,17.33
2023-03-21T12:07:19.887Z,17.50
2023-03-21T12:09:54.490Z,16.27
2023-03-21T12:12:39.364Z,16.23
2023-03-21T12:15:18.278Z,16.53
2023-03-21T12:17:55.607Z,16.13
2023-03-21T12:20:40.284Z,16.87
2023-03-21T12:23:19.314Z,15.97
2023-03-21T12:25:54.138Z,16.47
2023-03-21T12:28:34.771Z,17.43
2023-03-21T12:31:12.131Z,16.70
2023-03-21T12:33:54.244Z,16.07
2023-03-21T12:36:38.636Z,15.10
2023-03-21T12:39:21.705Z,14.90
2023-03-21T12:42:04.322Z,15.67
2023-03-21T12:44:39.005Z,15.60
2023-03-21T12:47:11.350Z,16.70
2023-03-21T12:49:43.915Z,16.27
2023-03-21T12:52:15.575Z,16.10
2023-03-21T12:54:49.507Z,16.60
2023-03-21T12:57:21.224Z,14.57
2023-03-21T12:59:56.152Z,15.57
2023-03-21T13:02:30.543Z,15.93
2023-03-21T13:05:05.982Z,14.47
2023-03-21T13:07:38.352Z,14.23
2023-03-21T13:10:14.725Z,14.43
2023-03-21T13:12:49.191Z,13.97
2023-03-21T13:15:54.774Z,15.53
2023-03-21T13:18:32.289Z,14.47
2023-03-21T13:21:03.702Z,14.27
2023-03-21T13:23:36.703Z,13.33
2023-03-21T13:26:08.774Z,13.37
2023-03-21T13:28:37.932Z,12.57
2023-03-21T13:31:23.325Z,12.70
2023-03-21T13:33:52.607Z,11.57
2023-03-21T13:36:28.819Z,12.10
2023-03-21T13:39:01.891Z,12.40
2023-03-21T13:41:32.999Z,11.93
2023-03-21T13:44:10.815Z,11.70
2023-03-21T13:46:53.322Z,11.30
2023-03-21T13:49:29.348Z,12.67
2023-03-21T13:51:58.469Z,12.43
2023-03-21T13:54:44.460Z,12.47
2023-03-21T13:57:23.370Z,13.00
2023-03-21T13:59:50.870Z,13.47
2023-03-21T14:02:33.635Z,12.27
2023-03-21T14:05:06.055Z,12.87
2023-03-21T14:07:36.662Z,12.20
2023-03-21T14:10:09.469Z,10.97
2023-03-21T14:12:41.167Z,11.90
2023-03-21T14:15:17.178Z,10.83
2023-03-21T14:17:53.736Z,10.87
2023-03-21T14:20:24.178Z,11.13
2023-03-21T14:22:51.841Z,11.07
2023-03-21T14:25:21.522Z,11.10
2023-03-21T14:27:52.582Z,12.27
2023-03-21T14:30:23.990Z,11.63
2023-03-21T14:32:55.826Z,11.03
2023-03-21T14:35:23.706Z,10.63
2023-03-21T14:37:52.642Z,10.23
2023-03-21T14:40:25.286Z,10.33
2023-03-21T14:42:53.704Z,11.80
2023-03-21T14:45:23.155Z,10.80
2023-03-21T14:48:00.013Z,10.70
2023-03-21T14:50:35.818Z,10.47
2023-03-21T14:53:03.608Z,10.13
2023-03-21T14:55:31.948Z,9.87
2023-03-21T14:57:59.596Z,10.87
2023-03-21T15:00:30.333Z,10.53
2023-03-21T15:03:01.286Z,11.27
2023-03-21T15:05:33.388Z,8.60
2023-03-21T15:08:03.593Z,10.90
2023-03-21T15:10:32.575Z,11.53
2023-03-21T15:13:02.545Z,11.37
2023-03-21T15:15:32.706Z,11.40
2023-03-21T15:18:07.231Z,10.87
2023-03-21T15:20:38.523Z,12.93
2023-03-21T15:23:10.678Z,10.93
2023-03-21T15:25:39.490Z,10.73
2023-03-21T15:28:07.444Z,10.83
2023-03-21T15:30:36.059Z,10.67
2023-03-21T15:33:10.576Z,10.63
2023-03-21T15:35:40.953Z,12.83
2023-03-21T15:38:21.771Z,11.30
2023-03-21T15:40:49.290Z,11.23
2023-03-21T15:43:18.837Z,11.17
2023-03-21T15:45:50.873Z,12.07
2023-03-21T15:48:23.175Z,11.30
2023-03-21T15:50:57.425Z,14.20
2023-03-21T15:53:25.933Z,11.43
2023-03-21T15:55:57.509Z,10.90
2023-03-21T15:58:27.747Z,9.93
2023-03-21T16:00:57.570Z,10.47
2023-03-21T16:03:29.176Z,26.10
2023-03-21T16:06:05.044Z,12.37
2023-03-21T16:08:35.815Z,11.33
2023-03-21T16:11:19.150Z,10.10
2023-03-21T16:13:46.901Z,10.70
2023-03-21T16:16:17.851Z,10.43
2023-03-21T16:18:46.867Z,10.93
2023-03-21T16:21:16.317Z,10.70
2023-03-21T16:23:44.001Z,10.33
2023-03-21T16:26:12.982Z,11.07
2023-03-21T16:28:40.554Z,11.27
2023-03-21T16:31:12.729Z,11.70
2023-03-21T16:33:40.318Z,11.43
2023-03-21T16:36:13.866Z,13.50
2023-03-21T16:38:41.349Z,12.60
2023-03-21T16:41:11.257Z,12.37
2023-03-21T16:43:42.784Z,11.53
2023-03-21T16:46:14.984Z,12.00
2023-03-21T16:48:43.017Z,11.93
2023-03-21T16:51:21.646Z,11.85
2023-03-21T16:53:51.409Z,11.97
2023-03-21T16:56:21.520Z,13.10
2023-03-21T16:58:49.312Z,12.90
2023-03-21T17:01:19.672Z,13.07
2023-03-21T17:03:48.291Z,14.23
2023-03-21T17:06:18.669Z,14.80
2023-03-21T17:08:46.860Z,14.73
2023-03-21T17:11:17.501Z,13.70
2023-03-21T17:13:45.436Z,15.50
2023-03-21T17:16:14.028Z,14.60
2023-03-21T17:18:41.554Z,16.43
2023-03-21T17:21:14.511Z,15.87
2023-03-21T17:23:43.975Z,17.10
2023-03-21T17:26:14.030Z,18.90
2023-03-21T17:28:42.059Z,19.07
2023-03-21T17:31:14.019Z,18.27
2023-03-21T17:33:41.581Z,19.30
2023-03-21T17:36:15.037Z,18.37
2023-03-21T17:38:45.804Z,19.87
2023-03-21T17:41:14.616Z,18.63
2023-03-21T17:43:42.119Z,19.50
2023-03-21T17:46:14.034Z,18.97
2023-03-21T17:48:41.611Z,19.77
2023-03-21T17:51:12.758Z,20.90
2023-03-21T17:53:40.302Z,42.17
2023-03-21T17:56:13.543Z,40.53
2023-03-21T17:58:40.989Z,44.97
2023-03-21T18:01:08.577Z,30.40
2023-03-21T18:03:36.031Z,30.10
2023-03-21T18:06:03.914Z,22.10
2023-03-21T18:08:31.372Z,32.83
2023-03-21T18:10:59.016Z,24.93
2023-03-21T18:13:27.796Z,22.40
2023-03-21T18:15:56.369Z,22.67
2023-03-21T18:18:23.958Z,21.07
2023-03-21T18:20:53.664Z,23.00
2023-03-21T18:23:32.235Z,21.40
2023-03-21T18:26:00.332Z,22.30
2023-03-21T18:28:29.082Z,21.23
2023-03-21T18:31:17.983Z,21.13
2023-03-21T18:33:45.244Z,22.20
2023-03-21T18:36:15.330Z,20.93
2023-03-21T18:38:43.124Z,21.30
2023-03-21T18:41:11.441Z,22.63
2023-03-21T18:44:05.274Z,23.00
2023-03-21T18:46:27.852Z,22.13
2023-03-21T18:48:55.628Z,20.80
2023-03-21T18:51:23.080Z,20.30
2023-03-21T18:53:50.563Z,21.93
2023-03-21T18:57:05.888Z,19.67
2023-03-21T18:59:07.410Z,20.87
2023-03-21T19:01:35.811Z,21.30
2023-03-21T19:04:20.734Z,21.10
2023-03-21T19:06:51.066Z,21.43
2023-03-21T19:09:18.726Z,21.93
2023-03-21T19:11:46.673Z,22.23
2023-03-21T19:14:17.481Z,21.60
2023-03-21T19:17:26.666Z,20.40
2023-03-21T19:19:33.756Z,21.70
2023-03-21T19:22:01.644Z,21.33
2023-03-21T19:24:29.362Z,21.97
2023-03-21T19:26:56.929Z,23.13
2023-03-21T19:29:26.151Z,22.23
2023-03-21T19:31:53.844Z,23.70
2023-03-21T19:34:21.680Z,23.80
2023-03-21T19:36:51.912Z,23.27
2023-03-21T19:39:22.230Z,26.90
2023-03-21T19:41:50.176Z,23.70
2023-03-21T19:44:19.081Z,22.87
2023-03-21T19:46:48.875Z,23.10
2023-03-21T19:49:20.138Z,20.40
2023-03-21T19:51:48.166Z,24.07
2023-03-21T19:54:17.857Z,24.83
2023-03-21T19:56:47.649Z,25.87
2023-03-21T19:59:15.998Z,23.73
2023-03-21T20:01:43.586Z,25.70
2023-03-21T20:04:12.747Z,21.27
2023-03-21T20:06:40.485Z,23.87
2023-03-21T20:11:57.878Z,25.10
2023-03-21T20:14:25.826Z,24.37
2023-03-21T20:16:55.243Z,25.50
2023-03-21T20:19:25.460Z,26.17
2023-03-21T20:21:58.772Z,27.07
2023-03-21T20:24:28.308Z,26.33
2023-03-21T20:26:57.373Z,25.60
2023-03-21T20:32:16.139Z,27.33
2023-03-21T20:34:46.237Z,27.30
2023-03-21T20:37:15.671Z,29.77
2023-03-21T20:39:43.611Z,25.07
2023-03-21T20:42:11.652Z,26.17
2023-03-21T20:44:58.468Z,28.07
2023-03-21T20:47:27.879Z,27.43
2023-03-21T20:50:01.847Z,28.20
2023-03-21T20:55:28.280Z,27.47
2023-03-21T20:57:55.840Z,29.43
2023-03-21T21:00:26.559Z,30.70
2023-03-21T21:02:54.382Z,26.90
2023-03-21T21:05:28.310Z,31.23
2023-03-21T21:07:57.117Z,30.63
2023-03-21T21:10:25.932Z,28.73
2023-03-21T21:12:53.768Z,26.53
2023-03-21T21:15:22.043Z,14.00
2023-03-21T21:18:08.531Z,19.07
2023-03-21T21:20:40.658Z,23.73
2023-03-21T21:23:13.740Z,10.27
2023-03-21T21:25:44.593Z,23.60
2023-03-21T21:28:14.482Z,25.93
2023-03-21T21:30:42.821Z,28.47
2023-03-21T21:33:10.537Z,24.50
2023-03-21T21:35:39.507Z,19.13
2023-03-21T21:38:07.124Z,23.40
2023-03-21T21:40:34.561Z,28.93
2023-03-21T21:43:03.651Z,30.00
2023-03-21T21:45:31.689Z,27.57
2023-03-21T21:47:59.134Z,33.50
2023-03-21T21:50:26.573Z,33.40
2023-03-21T21:52:55.352Z,32.93
2023-03-21T21:55:23.357Z,35.63
2023-03-21T21:57:51.243Z,34.50
2023-03-21T22:00:20.563Z,32.03
2023-03-21T22:02:48.265Z,36.57
2023-03-21T22:05:16.260Z,35.53
2023-03-21T22:07:44.192Z,36.50
2023-03-21T22:10:13.379Z,32.90
2023-03-21T22:12:41.169Z,30.77
2023-03-21T22:15:10.707Z,33.10
2023-03-21T22:17:39.070Z,32.40
2023-03-21T22:20:08.777Z,31.27
2023-03-21T22:22:37.312Z,29.30
2023-03-21T22:25:06.744Z,31.50
2023-03-21T22:27:35.711Z,31.70
2023-03-21T22:30:04.872Z,34.80
2023-03-21T22:32:32.387Z,34.27
2023-03-21T22:35:02.256Z,32.83
2023-03-21T22:37:29.882Z,30.17
2023-03-21T22:39:57.284Z,30.33
2023-03-21T22:42:25.324Z,29.40
2023-03-21T22:44:54.084Z,33.73
2023-03-21T22:47:21.594Z,33.60
2023-03-21T22:49:49.061Z,33.43
2023-03-21T22:52:16.519Z,32.63
2023-03-21T22:54:44.096Z,29.77
2023-03-21T22:57:13.587Z,31.37
2023-03-21T22:59:41.171Z,29.50
2023-03-21T23:02:10.382Z,28.43
2023-03-21T23:04:38.202Z,28.20
2023-03-21T23:07:05.859Z,25.40
2023-03-21T23:09:33.560Z,24.17
2023-03-21T23:12:01.164Z,26.20
2023-03-21T23:14:28.849Z,23.73
2023-03-21T23:17:00.144Z,22.47
2023-03-21T23:19:29.614Z,26.50
2023-03-21T23:21:57.780Z,23.27
2023-03-21T23:24:25.731Z,23.97
2023-03-21T23:26:53.418Z,24.57
2023-03-21T23:29:20.955Z,24.30
2023-03-21T23:31:48.430Z,23.67
2023-03-21T23:34:16.286Z,23.17
2023-03-21T23:36:45.209Z,23.67
2023-03-21T23:39:12.635Z,23.87
2023-03-21T23:41:42.649Z,22.67
2023-03-21T23:44:10.113Z,24.43
2023-03-21T23:46:37.683Z,23.37
2023-03-21T23:49:05.255Z,22.97
2023-03-21T23:51:32.727Z,21.97
2023-03-21T23:54:01.613Z,23.50
2023-03-21T23:56:29.342Z,20.70
2023-03-21T23:58:58.185Z,21.37
